Time;durP1;ratioP1;P1;durP2;ratioP2;P2;SDS_P1;SDS_P2;PMS_P1;PMS_P2;Temp;Humidity;BMP_temperature;BMP_pressure;BME280_temperature;BME280_humidity;BME280_pressure;Samples;Min_cycle;Max_cycle;Signal;HPM_P1;HPM_P2
2022/09/27 00:00:21;;;;;;;6.45;1.30;;;11.20;90.50;;;;;;5133687;28;20059;-34
2022/09/27 00:02:48;;;;;;;5.35;1.13;;;11.20;90.50;;;;;;5133738;28;20023;-33
2022/09/27 00:05:14;;;;;;;2.90;1.17;;;11.20;90.50;;;;;;5135951;27;20098;-33
2022/09/27 00:07:40;;;;;;;2.38;1.05;;;11.20;90.50;;;;;;5137443;27;20026;-33
2022/09/27 00:10:06;;;;;;;3.60;1.30;;;11.10;90.50;;;;;;5137838;27;20394;-33
2022/09/27 00:12:31;;;;;;;3.67;1.05;;;11.10;90.50;;;;;;5137440;27;20015;-33
2022/09/27 00:14:57;;;;;;;3.70;0.90;;;11.20;90.50;;;;;;5137326;27;20060;-34
2022/09/27 00:17:22;;;;;;;5.25;1.20;;;11.10;90.50;;;;;;5118787;27;20118;-33
2022/09/27 00:19:48;;;;;;;3.17;1.02;;;11.10;90.50;;;;;;5137108;27;20462;-34
2022/09/27 00:22:13;;;;;;;5.47;1.35;;;11.10;90.50;;;;;;5137572;27;20046;-32
2022/09/27 00:24:39;;;;;;;3.85;1.25;;;11.00;90.50;;;;;;5137313;27;20023;-33
2022/09/27 00:27:04;;;;;;;4.30;1.30;;;11.00;90.50;;;;;;5136850;27;20122;-33
2022/09/27 00:29:30;;;;;;;2.75;1.05;;;11.00;90.50;;;;;;5137127;27;20077;-33
2022/09/27 00:31:55;;;;;;;4.22;1.10;;;10.90;90.50;;;;;;5136940;27;20426;-33
2022/09/27 00:34:24;;;;;;;4.28;1.15;;;10.90;90.60;;;;;;5137126;27;20019;-33
2022/09/27 00:36:51;;;;;;;4.78;1.20;;;10.90;90.60;;;;;;5136787;27;20437;-33
2022/09/27 00:39:17;;;;;;;1.85;0.90;;;10.90;90.60;;;;;;5137194;27;20059;-34
2022/09/27 00:41:44;;;;;;;2.40;0.68;;;10.90;90.60;;;;;;5136858;27;20160;-31
2022/09/27 00:44:28;;;;;;;3.05;0.90;;;10.90;90.60;;;;;;5137218;27;20466;-32
2022/09/27 00:46:56;;;;;;;3.25;0.90;;;10.90;90.60;;;;;;5136579;27;20088;-32
2022/09/27 00:49:28;;;;;;;1.85;0.88;;;10.90;90.60;;;;;;5136771;27;20023;-33
2022/09/27 00:52:01;;;;;;;2.13;0.90;;;10.90;90.70;;;;;;5118317;27;20114;-32
2022/09/27 00:54:28;;;;;;;3.15;1.00;;;10.90;90.60;;;;;;5136675;27;20067;-33
2022/09/27 00:56:55;;;;;;;3.50;0.77;;;10.90;90.60;;;;;;5136407;27;20035;-33
2022/09/27 00:59:31;;;;;;;3.55;0.68;;;10.90;90.50;;;;;;5135784;28;20051;-33
2022/09/27 01:01:57;;;;;;;4.60;0.90;;;10.90;90.50;;;;;;5135366;28;20027;-33
2022/09/27 01:04:26;;;;;;;3.58;0.70;;;10.90;90.50;;;;;;5136271;28;20068;-33
2022/09/27 01:06:53;;;;;;;1.23;0.45;;;10.90;90.50;;;;;;5135462;28;20038;-33
2022/09/27 01:09:20;;;;;;;4.00;0.75;;;10.90;90.50;;;;;;5135393;28;20518;-33
2022/09/27 01:12:04;;;;;;;4.82;0.80;;;10.90;90.50;;;;;;5134875;28;20019;-32
2022/09/27 01:14:57;;;;;;;3.10;0.77;;;10.90;90.50;;;;;;5134918;27;20057;-33
2022/09/27 01:17:47;;;;;;;1.25;0.52;;;10.90;90.50;;;;;;5134875;28;20023;-33
2022/09/27 01:20:34;;;;;;;3.40;0.70;;;10.90;90.50;;;;;;5134910;28;20015;-32
2022/09/27 01:23:21;;;;;;;3.22;0.95;;;10.90;90.50;;;;;;5116350;28;20386;-33
2022/09/27 01:26:15;;;;;;;2.60;0.75;;;10.90;90.40;;;;;;5134643;28;20045;-31
2022/09/27 01:28:51;;;;;;;1.98;0.80;;;10.90;90.40;;;;;;5134742;28;20386;-31
2022/09/27 01:31:26;;;;;;;3.60;0.68;;;10.90;90.40;;;;;;5134847;28;20101;-33
2022/09/27 01:34:11;;;;;;;1.58;0.63;;;10.90;90.40;;;;;;5134737;28;20019;-33
2022/09/27 01:37:06;;;;;;;2.25;0.80;;;10.90;90.40;;;;;;5116980;28;20015;-33
2022/09/27 01:39:54;;;;;;;1.25;0.65;;;10.80;90.40;;;;;;5131596;28;20176;-33
2022/09/27 01:42:36;;;;;;;1.15;0.30;;;10.80;90.40;;;;;;5134614;28;20034;-33
2022/09/27 01:45:10;;;;;;;3.33;0.70;;;10.70;90.40;;;;;;5134346;28;20068;-44
2022/09/27 01:47:46;;;;;;;3.78;0.70;;;10.70;90.40;;;;;;5134906;28;20072;-33
2022/09/27 01:50:44;;;;;;;2.58;0.55;;;10.70;90.50;;;;;;5134547;28;20386;-33
2022/09/27 01:53:17;;;;;;;1.92;0.60;;;10.70;90.50;;;;;;5127518;28;20023;-33
2022/09/27 01:55:47;;;;;;;2.72;0.80;;;10.60;90.40;;;;;;5134652;28;20019;-38
2022/09/27 01:58:45;;;;;;;2.60;0.70;;;10.60;90.40;;;;;;5097363;27;1067793;-38
2022/09/27 02:01:13;;;;;;;1.70;0.52;;;10.50;90.50;;;;;;5134691;27;20031;-33
2022/09/27 02:03:48;;;;;;;2.05;0.50;;;10.50;90.50;;;;;;5135121;27;20027;-33
2022/09/27 02:06:22;;;;;;;3.67;0.85;;;10.40;90.50;;;;;;5135062;27;20058;-33
2022/09/27 02:08:59;;;;;;;0.55;0.40;;;10.40;90.60;;;;;;5135151;27;20106;-31
2022/09/27 02:11:26;;;;;;;2.47;0.70;;;10.40;90.60;;;;;;5134955;27;20031;-33
2022/09/27 02:14:04;;;;;;;4.28;0.70;;;10.40;90.60;;;;;;5134986;27;20023;-39
2022/09/27 02:16:50;;;;;;;3.65;0.60;;;10.40;90.60;;;;;;5134864;27;20053;-33
2022/09/27 02:19:49;;;;;;;3.08;0.50;;;10.30;90.60;;;;;;5135039;27;20064;-33
2022/09/27 02:22:30;;;;;;;3.00;0.60;;;10.30;90.60;;;;;;5134766;27;20042;-35
2022/09/27 02:25:04;;;;;;;3.08;0.73;;;10.30;90.60;;;;;;5134896;27;20474;-33
2022/09/27 02:27:51;;;;;;;2.58;0.82;;;10.20;90.60;;;;;;5134009;27;20039;-33
2022/09/27 02:30:17;;;;;;;2.22;0.60;;;10.30;90.60;;;;;;5134595;27;20049;-33
2022/09/27 02:32:43;;;;;;;2.13;0.77;;;10.20;90.60;;;;;;5134657;27;20106;-31
2022/09/27 02:35:17;;;;;;;2.83;0.60;;;10.20;90.60;;;;;;5134918;27;20359;-34
2022/09/27 02:37:43;;;;;;;3.55;0.50;;;10.20;90.60;;;;;;5134509;27;20505;-33
2022/09/27 02:40:09;;;;;;;3.22;0.65;;;10.20;90.60;;;;;;5134561;27;20027;-32
2022/09/27 02:42:34;;;;;;;1.73;0.65;;;10.10;90.60;;;;;;5134805;27;20046;-33
2022/09/27 02:45:01;;;;;;;2.83;0.50;;;10.10;90.60;;;;;;5134516;27;20036;-33
2022/09/27 02:47:30;;;;;;;1.88;0.50;;;10.20;90.70;;;;;;5134243;27;20410;-34
2022/09/27 02:50:08;;;;;;;3.25;0.70;;;10.20;90.60;;;;;;5115690;27;20028;-33
2022/09/27 02:52:56;;;;;;;4.72;0.60;;;10.20;90.60;;;;;;5134167;27;20019;-33
2022/09/27 02:55:53;;;;;;;2.55;0.60;;;10.20;90.60;;;;;;5134466;27;20031;-33
2022/09/27 02:58:47;;;;;;;3.53;0.60;;;10.20;90.60;;;;;;5133917;27;20054;-33
2022/09/27 03:01:40;;;;;;;3.83;0.60;;;10.20;90.50;;;;;;5086207;27;20044;-33
2022/09/27 03:04:22;;;;;;;2.08;0.75;;;10.10;90.50;;;;;;5134104;27;20478;-33
2022/09/27 03:06:50;;;;;;;3.95;0.50;;;10.10;90.50;;;;;;5134056;27;20113;-32
2022/09/27 03:09:28;;;;;;;2.22;0.60;;;10.10;90.50;;;;;;5134098;27;20027;-34
2022/09/27 03:11:53;;;;;;;2.55;0.50;;;10.10;90.50;;;;;;5133670;27;20027;-34
2022/09/27 03:14:19;;;;;;;3.90;0.77;;;10.10;90.50;;;;;;5133837;27;20088;-33
2022/09/27 03:16:45;;;;;;;1.45;0.52;;;10.00;90.50;;;;;;5115369;27;20030;-33
2022/09/27 03:19:10;;;;;;;3.25;0.90;;;10.00;90.50;;;;;;5133797;27;20029;-35
2022/09/27 03:21:36;;;;;;;1.38;0.55;;;10.00;90.50;;;;;;5115456;27;20035;-34
2022/09/27 03:24:02;;;;;;;3.80;0.70;;;10.00;90.50;;;;;;5133755;27;20027;-33
2022/09/27 03:26:28;;;;;;;4.78;0.60;;;10.10;90.50;;;;;;5133658;27;20030;-33
2022/09/27 03:28:54;;;;;;;4.65;0.70;;;10.00;90.50;;;;;;5133811;27;20019;-33
2022/09/27 03:31:19;;;;;;;3.85;0.60;;;10.10;90.50;;;;;;5133907;27;20083;-36
2022/09/27 03:33:45;;;;;;;1.48;0.77;;;10.00;90.50;;;;;;5133757;27;20054;-33
2022/09/27 03:36:10;;;;;;;2.70;0.60;;;10.00;90.50;;;;;;5133923;27;20122;-33
2022/09/27 03:38:36;;;;;;;1.95;0.57;;;10.00;90.50;;;;;;5133669;27;20038;-34
2022/09/27 03:41:03;;;;;;;3.45;0.82;;;10.00;90.50;;;;;;5133594;27;20035;-34
2022/09/27 03:43:28;;;;;;;2.88;0.52;;;10.00;90.50;;;;;;5133741;27;20332;-34
2022/09/27 03:45:54;;;;;;;1.95;0.73;;;10.00;90.50;;;;;;5133276;27;20034;-33
2022/09/27 03:48:19;;;;;;;3.72;0.90;;;10.00;90.50;;;;;;5133419;27;20066;-33
2022/09/27 03:50:45;;;;;;;4.65;0.95;;;10.00;90.50;;;;;;5133382;28;20068;-34
2022/09/27 03:53:10;;;;;;;4.03;1.27;;;10.00;90.60;;;;;;5133649;28;20468;-33
2022/09/27 03:55:36;;;;;;;3.72;1.17;;;9.90;90.60;;;;;;5133563;28;20055;-33
2022/09/27 03:58:02;;;;;;;2.28;1.00;;;9.90;90.60;;;;;;5133139;28;20124;-33
2022/09/27 04:00:27;;;;;;;4.90;0.90;;;9.90;90.60;;;;;;5133379;28;20027;-32
2022/09/27 04:02:53;;;;;;;2.13;1.00;;;9.90;90.60;;;;;;5133131;28;20479;-31
2022/09/27 04:05:18;;;;;;;4.65;1.00;;;9.90;90.60;;;;;;5133771;28;20099;-32
2022/09/27 04:07:48;;;;;;;2.95;0.90;;;9.90;90.60;;;;;;5114630;28;20027;-31
2022/09/27 04:10:14;;;;;;;2.83;0.85;;;9.90;90.60;;;;;;5133356;28;20038;-32
2022/09/27 04:12:40;;;;;;;4.50;1.17;;;9.90;90.60;;;;;;5133323;28;20478;-33
2022/09/27 04:15:07;;;;;;;4.68;1.00;;;10.00;90.60;;;;;;5133040;28;20072;-33
2022/09/27 04:17:33;;;;;;;6.10;1.10;;;10.00;90.60;;;;;;5133342;28;20080;-33
2022/09/27 04:20:02;;;;;;;2.47;0.98;;;10.00;90.60;;;;;;5132996;28;20110;-33
2022/09/27 04:22:28;;;;;;;4.95;0.90;;;10.00;90.60;;;;;;5133291;28;20070;-41
2022/09/27 04:24:53;;;;;;;3.97;0.93;;;10.10;90.60;;;;;;5133071;28;20054;-36
2022/09/27 04:27:20;;;;;;;5.65;1.00;;;10.10;90.50;;;;;;5132929;28;20023;-32
2022/09/27 04:29:46;;;;;;;3.33;1.00;;;10.10;90.50;;;;;;5133006;28;20054;-33
2022/09/27 04:32:12;;;;;;;5.78;1.20;;;10.10;90.50;;;;;;5133010;28;20059;-32
2022/09/27 04:37:22;;;;;;;5.57;0.80;;;10.10;90.50;;;;;;5133120;28;20031;-32
2022/09/27 04:39:48;;;;;;;3.65;1.13;;;10.10;90.50;;;;;;5133159;28;20027;-33
2022/09/27 04:42:14;;;;;;;3.58;1.20;;;10.10;90.50;;;;;;5132933;28;20027;-34
2022/09/27 04:44:40;;;;;;;8.07;1.27;;;10.10;90.50;;;;;;5133212;28;20039;-33
2022/09/27 04:47:05;;;;;;;7.30;1.50;;;10.10;90.50;;;;;;5132916;28;20023;-34
2022/09/27 04:49:31;;;;;;;3.88;1.17;;;10.20;90.50;;;;;;5132834;27;20051;-33
2022/09/27 04:51:56;;;;;;;4.82;1.38;;;10.10;90.50;;;;;;5136372;27;20023;-33
2022/09/27 04:54:22;;;;;;;3.92;1.10;;;10.10;90.40;;;;;;5136742;27;20111;-34
2022/09/27 04:56:48;;;;;;;10.02;1.30;;;10.10;90.50;;;;;;5136543;27;20493;-35
2022/09/27 04:59:13;;;;;;;4.72;1.30;;;10.10;90.50;;;;;;5136659;27;20042;-34
2022/09/27 05:01:39;;;;;;;3.55;1.38;;;10.00;90.50;;;;;;5136754;27;20019;-36
2022/09/27 05:04:05;;;;;;;4.68;1.40;;;10.00;90.50;;;;;;5136450;27;20027;-33
2022/09/27 05:06:30;;;;;;;7.05;1.77;;;9.90;90.50;;;;;;5136236;27;20027;-33
2022/09/27 05:08:57;;;;;;;8.35;1.48;;;9.90;90.50;;;;;;5136423;27;20026;-34
2022/09/27 05:11:23;;;;;;;4.25;1.00;;;9.90;90.60;;;;;;5117830;27;20019;-33
2022/09/27 05:13:49;;;;;;;5.15;1.10;;;9.90;90.50;;;;;;5136306;27;20065;-33
2022/09/27 05:16:14;;;;;;;4.45;1.23;;;9.90;90.50;;;;;;5117955;27;20072;-33
2022/09/27 05:18:41;;;;;;;5.30;1.30;;;9.90;90.50;;;;;;5136378;27;20072;-34
2022/09/27 05:21:06;;;;;;;7.57;1.63;;;9.90;90.50;;;;;;5137087;27;20336;-34
2022/09/27 05:23:32;;;;;;;8.27;1.58;;;9.90;90.50;;;;;;5136156;27;20027;-34
2022/09/27 05:26:01;;;;;;;7.88;1.50;;;9.90;90.50;;;;;;5136130;27;20016;-33
2022/09/27 05:28:27;;;;;;;7.30;1.35;;;9.80;90.50;;;;;;5135764;27;20015;-35
2022/09/27 05:30:52;;;;;;;4.53;1.50;;;9.80;90.50;;;;;;5135732;27;20019;-34
2022/09/27 05:33:18;;;;;;;6.38;1.40;;;9.80;90.50;;;;;;5135712;27;20100;-34
2022/09/27 05:35:54;;;;;;;5.90;1.20;;;9.90;90.50;;;;;;5136061;27;20035;-33
2022/09/27 05:38:20;;;;;;;3.40;1.00;;;9.80;90.50;;;;;;5135987;27;20019;-34
2022/09/27 05:40:48;;;;;;;6.10;1.13;;;9.80;90.50;;;;;;5135696;27;20359;-34
2022/09/27 05:43:14;;;;;;;2.88;1.00;;;9.80;90.50;;;;;;5135652;27;20016;-33
2022/09/27 05:45:42;;;;;;;3.45;0.77;;;9.80;90.40;;;;;;5135710;27;20026;-35
2022/09/27 05:48:08;;;;;;;1.77;0.82;;;9.70;90.40;;;;;;5116865;27;20023;-35
2022/09/27 05:50:33;;;;;;;4.22;0.93;;;9.70;90.40;;;;;;5135434;27;20543;-33
2022/09/27 05:52:59;;;;;;;3.40;0.90;;;9.70;90.40;;;;;;5135831;27;20023;-33
2022/09/27 05:55:24;;;;;;;3.20;1.08;;;9.70;90.40;;;;;;5135794;27;20121;-34
2022/09/27 05:58:00;;;;;;;1.88;0.50;;;9.70;90.40;;;;;;5135496;27;20051;-33
2022/09/27 06:00:27;;;;;;;2.58;0.70;;;9.70;90.40;;;;;;5135819;27;20374;-33
2022/09/27 06:02:54;;;;;;;2.45;1.00;;;9.70;90.40;;;;;;5115916;27;20068;-33
2022/09/27 06:05:20;;;;;;;2.95;0.93;;;9.70;90.60;;;;;;5135643;27;20359;-33
2022/09/27 06:07:48;;;;;;;2.35;0.75;;;9.70;90.30;;;;;;5135146;27;20072;-32
2022/09/27 06:10:15;;;;;;;3.30;0.90;;;9.70;90.30;;;;;;5135450;27;20023;-32
2022/09/27 06:12:40;;;;;;;7.13;1.15;;;9.80;90.30;;;;;;5135348;27;20050;-33
2022/09/27 06:15:07;;;;;;;4.10;1.13;;;9.80;90.30;;;;;;5135201;27;20011;-33
2022/09/27 06:17:36;;;;;;;3.33;1.05;;;9.80;90.30;;;;;;5134991;27;20024;-33
2022/09/27 06:20:02;;;;;;;2.83;1.17;;;9.80;90.30;;;;;;5134880;27;20031;-33
2022/09/27 06:22:28;;;;;;;2.08;0.93;;;9.90;90.30;;;;;;5135295;27;20155;-33
2022/09/27 06:24:53;;;;;;;3.25;0.82;;;9.90;90.30;;;;;;5134752;27;20079;-33
2022/09/27 06:27:19;;;;;;;4.85;1.00;;;9.90;90.30;;;;;;5134561;27;20019;-35
2022/09/27 06:29:45;;;;;;;4.95;0.98;;;9.90;90.30;;;;;;5134702;27;20026;-33
2022/09/27 06:32:12;;;;;;;4.32;1.25;;;9.90;90.30;;;;;;5134764;27;20048;-34
2022/09/27 06:34:38;;;;;;;2.47;0.90;;;10.00;90.40;;;;;;5116079;27;20088;-33
2022/09/27 06:37:04;;;;;;;2.13;1.10;;;10.10;90.40;;;;;;5134623;27;20381;-32
2022/09/27 06:39:32;;;;;;;1.17;0.85;;;10.20;90.30;;;;;;5134237;27;20025;-33
2022/09/27 06:41:58;;;;;;;2.35;0.85;;;10.20;90.20;;;;;;5134549;27;20038;-32
2022/09/27 06:44:24;;;;;;;2.80;0.88;;;10.20;90.20;;;;;;5134209;27;20019;-32
2022/09/27 06:46:54;;;;;;;3.83;0.90;;;10.30;90.10;;;;;;5134012;27;20057;-32
2022/09/27 06:49:21;;;;;;;2.65;1.02;;;10.30;90.20;;;;;;5134130;27;20470;-33
2022/09/27 06:51:47;;;;;;;1.85;0.70;;;10.30;90.20;;;;;;5134036;27;20071;-34
2022/09/27 06:54:14;;;;;;;2.65;1.00;;;10.30;90.20;;;;;;5134370;27;20023;-33
2022/09/27 06:56:39;;;;;;;2.55;1.58;;;10.30;90.10;;;;;;5133973;27;20024;-34
2022/09/27 07:01:51;;;;;;;5.20;1.35;;;10.40;90.10;;;;;;5133850;27;20104;-32
2022/09/27 07:04:17;;;;;;;3.38;1.27;;;10.50;90.10;;;;;;5134060;27;20090;-32
2022/09/27 07:06:43;;;;;;;2.30;1.00;;;10.50;90.00;;;;;;5133743;27;20015;-32
2022/09/27 07:09:09;;;;;;;1.90;1.10;;;10.60;90.00;;;;;;5133975;27;20443;-33
2022/09/27 07:11:35;;;;;;;2.10;0.95;;;10.70;90.00;;;;;;5115394;27;20027;-33
2022/09/27 07:14:05;;;;;;;3.17;1.00;;;10.80;89.90;;;;;;5133353;27;20102;-33
2022/09/27 07:16:33;;;;;;;5.60;1.27;;;10.80;89.80;;;;;;5133652;27;20034;-34
2022/09/27 07:18:59;;;;;;;2.95;1.10;;;10.90;89.80;;;;;;5115182;27;20027;-34
2022/09/27 07:21:25;;;;;;;3.05;1.00;;;10.90;89.80;;;;;;5133905;27;20034;-34
2022/09/27 07:23:50;;;;;;;3.13;0.98;;;10.90;89.70;;;;;;5133688;27;20027;-34
2022/09/27 07:26:16;;;;;;;2.95;1.13;;;10.90;89.70;;;;;;5133972;27;20111;-34
2022/09/27 07:28:42;;;;;;;2.42;1.10;;;10.90;89.70;;;;;;5133980;27;20023;-33
2022/09/27 07:31:08;;;;;;;2.40;0.85;;;10.90;89.70;;;;;;5133535;27;20026;-32
2022/09/27 07:33:34;;;;;;;5.43;1.73;;;10.80;89.80;;;;;;5133629;27;20019;-34
2022/09/27 07:36:00;;;;;;;3.60;1.00;;;10.90;89.90;;;;;;5133324;27;20385;-34
2022/09/27 07:38:26;;;;;;;2.92;0.90;;;10.90;89.90;;;;;;5133689;27;20038;-34
2022/09/27 07:40:51;;;;;;;1.65;1.00;;;11.00;90.00;;;;;;5133294;27;20019;-32
2022/09/27 07:43:18;;;;;;;1.90;1.17;;;11.00;89.90;;;;;;5133554;27;20019;-33
2022/09/27 07:45:44;;;;;;;3.15;0.80;;;11.10;90.20;;;;;;5133396;27;20019;-33
2022/09/27 07:48:13;;;;;;;2.88;1.00;;;11.10;89.90;;;;;;5133244;27;20111;-34
2022/09/27 07:50:38;;;;;;;1.92;0.95;;;11.10;89.80;;;;;;5133621;27;20015;-34
2022/09/27 07:53:04;;;;;;;3.65;1.10;;;11.20;89.80;;;;;;5133276;28;20019;-34
2022/09/27 07:55:30;;;;;;;1.30;0.82;;;11.30;89.80;;;;;;5134098;28;20027;-34
2022/09/27 07:58:03;;;;;;;2.55;0.90;;;11.30;89.60;;;;;;5133184;28;20051;-34
2022/09/27 08:00:29;;;;;;;;;;;11.30;89.60;;;;;;5134054;28;20091;-34
2022/09/27 08:02:54;;;;;;;3.58;1.08;;;11.30;89.50;;;;;;5133492;28;19911;-35
2022/09/27 08:05:20;;;;;;;3.05;1.10;;;11.30;89.40;;;;;;5133527;28;20382;-34
2022/09/27 08:07:46;;;;;;;3.75;0.90;;;11.30;89.40;;;;;;5133146;28;20045;-33
2022/09/27 08:10:11;;;;;;;2.85;0.75;;;11.30;89.40;;;;;;5133236;28;20016;-35
2022/09/27 08:12:37;;;;;;;3.08;1.00;;;11.40;89.40;;;;;;5133164;28;20363;-35
2022/09/27 08:15:03;;;;;;;2.83;1.02;;;11.50;89.50;;;;;;5133290;28;20023;-34
2022/09/27 08:17:31;;;;;;;2.25;0.68;;;11.50;89.40;;;;;;5133470;28;20030;-34
2022/09/27 08:19:57;;;;;;;4.10;0.80;;;11.50;89.30;;;;;;5133532;28;20522;-33
2022/09/27 08:22:23;;;;;;;2.05;0.70;;;11.60;89.10;;;;;;5133499;28;20016;-34
2022/09/27 08:24:48;;;;;;;1.55;0.60;;;11.60;89.10;;;;;;5133364;27;20091;-34
2022/09/27 08:27:15;;;;;;;2.85;1.00;;;11.60;89.00;;;;;;5137317;27;20106;-34
2022/09/27 08:29:41;;;;;;;2.00;0.70;;;11.60;89.00;;;;;;5137114;27;20065;-35
2022/09/27 08:32:08;;;;;;;2.70;0.90;;;11.70;89.00;;;;;;5136995;27;20020;-40
2022/09/27 08:34:34;;;;;;;1.92;0.70;;;11.70;88.90;;;;;;5136982;27;20019;-35
2022/09/27 08:36:59;;;;;;;2.80;1.02;;;11.70;88.80;;;;;;5137146;27;20030;-34
2022/09/27 08:39:25;;;;;;;1.60;1.00;;;11.70;88.50;;;;;;5136835;27;20034;-33
2022/09/27 08:42:13;;;;;;;1.85;1.00;;;11.60;88.40;;;;;;5137027;27;20015;-35
2022/09/27 08:44:52;;;;;;;1.63;1.00;;;11.50;88.40;;;;;;5136740;27;20027;-41
2022/09/27 08:47:21;;;;;;;1.83;0.90;;;11.40;88.60;;;;;;5136802;27;20466;-34
2022/09/27 08:49:58;;;;;;;3.95;1.30;;;11.40;88.80;;;;;;5136622;27;20031;-34
2022/09/27 08:52:35;;;;;;;2.42;1.10;;;11.40;89.10;;;;;;5137097;27;20019;-34
2022/09/27 08:55:05;;;;;;;3.15;1.23;;;11.40;89.20;;;;;;5136706;27;20024;-32
2022/09/27 08:57:30;;;;;;;3.30;1.30;;;11.40;89.20;;;;;;5136462;27;20506;-34
2022/09/27 09:00:07;;;;;;;3.25;1.50;;;11.40;89.30;;;;;;5136597;27;20039;-34
2022/09/27 09:02:34;;;;;;;2.90;1.33;;;11.40;89.30;;;;;;5136697;27;20038;-33
2022/09/27 09:05:12;;;;;;;3.80;1.52;;;11.50;89.30;;;;;;5136296;27;20030;-33
2022/09/27 09:07:47;;;;;;;1.55;1.42;;;11.60;89.30;;;;;;5136388;27;20080;-34
2022/09/27 09:14:11;;;;;;;2.53;1.40;;;11.80;89.10;;;;;;5136164;27;20542;-32
2022/09/27 09:16:51;;;;;;;1.58;1.48;;;11.90;88.90;;;;;;5117642;27;20027;-34
2022/09/27 09:19:43;;;;;;;2.88;1.23;;;12.00;88.80;;;;;;5136111;27;20056;-34
2022/09/27 09:22:38;;;;;;;2.58;1.27;;;12.00;88.60;;;;;;5135991;27;20052;-34
2022/09/27 09:25:10;;;;;;;1.27;1.08;;;12.10;88.30;;;;;;5135161;27;20092;-34
2022/09/27 09:28:14;;;;;;;1.45;0.80;;;12.10;88.80;;;;;;5135968;27;20034;-33
2022/09/27 09:31:01;;;;;;;0.60;0.60;;;12.10;87.90;;;;;;5136303;27;20060;-34
2022/09/27 09:33:30;;;;;;;0.73;0.73;;;12.10;87.70;;;;;;5136172;27;20121;-35
2022/09/27 09:36:01;;;;;;;1.20;1.10;;;12.00;87.50;;;;;;5135730;27;20050;-35
2022/09/27 09:39:14;;;;;;;2.25;1.10;;;11.90;87.70;;;;;;5136124;27;20028;-34
2022/09/27 09:41:50;;;;;;;2.75;1.20;;;11.80;87.80;;;;;;5089329;27;20388;-34
2022/09/27 09:44:40;;;;;;;1.33;1.13;;;11.60;87.90;;;;;;5135722;27;20442;-34
2022/09/27 09:47:20;;;;;;;2.88;1.30;;;11.50;88.20;;;;;;5118800;27;20118;-34
2022/09/27 09:49:55;;;;;;;2.75;1.30;;;11.50;88.40;;;;;;5135821;27;20019;-33
2022/09/27 09:52:25;;;;;;;2.25;1.20;;;11.50;88.50;;;;;;5135585;27;20059;-34
2022/09/27 09:55:06;;;;;;;2.20;1.00;;;11.40;88.50;;;;;;5135287;27;20030;-33
2022/09/27 09:57:48;;;;;;;3.05;1.10;;;11.30;88.60;;;;;;5135502;27;20046;-34
2022/09/27 10:00:16;;;;;;;3.92;1.20;;;11.30;88.80;;;;;;5135288;27;20096;-33
2022/09/27 10:02:44;;;;;;;2.05;0.98;;;11.40;89.00;;;;;;5135127;27;20069;-33
2022/09/27 10:05:19;;;;;;;1.77;0.93;;;11.40;89.00;;;;;;5116661;27;20064;-34
2022/09/27 10:07:49;;;;;;;2.03;0.80;;;11.50;88.80;;;;;;5117416;27;20355;-33
2022/09/27 10:10:17;;;;;;;3.10;0.73;;;11.50;88.70;;;;;;5116452;27;20407;-35
2022/09/27 10:12:44;;;;;;;1.45;0.70;;;11.50;88.50;;;;;;5135052;27;20482;-35
2022/09/27 10:15:21;;;;;;;3.67;0.50;;;11.60;88.60;;;;;;5135199;27;20015;-38
2022/09/27 10:17:53;;;;;;;3.13;0.70;;;11.60;88.30;;;;;;5135031;27;20486;-40
2022/09/27 10:21:03;;;;;;;3.00;0.70;;;11.60;88.10;;;;;;5134872;27;20031;-39
2022/09/27 10:23:29;;;;;;;2.75;0.70;;;11.60;88.40;;;;;;5015073;28;20057;-35
2022/09/27 10:25:56;;;;;;;4.32;0.70;;;11.60;88.00;;;;;;5113337;27;20035;-35
2022/09/27 10:28:57;;;;;;;2.53;0.70;;;11.60;88.00;;;;;;5135024;27;20023;-34
2022/09/27 10:31:23;;;;;;;2.17;0.70;;;11.70;88.00;;;;;;5031584;28;20029;-33
2022/09/27 10:34:01;;;;;;;2.92;0.85;;;11.70;88.00;;;;;;5113800;27;20470;-33
2022/09/27 10:36:29;;;;;;;2.92;0.77;;;11.70;87.70;;;;;;5135013;27;20031;-34
2022/09/27 10:38:59;;;;;;;2.40;0.77;;;11.70;87.90;;;;;;5134955;27;20101;-35
2022/09/27 10:41:31;;;;;;;3.65;1.05;;;11.70;87.80;;;;;;5134677;27;20015;-34
2022/09/27 10:44:16;;;;;;;2.83;0.57;;;11.80;87.60;;;;;;5135027;27;20435;-34
2022/09/27 10:46:49;;;;;;;2.60;0.80;;;11.80;87.50;;;;;;5134215;27;20110;-35
2022/09/27 10:49:31;;;;;;;0.57;0.40;;;11.90;87.30;;;;;;5134030;27;20024;-34
2022/09/27 10:51:59;;;;;;;3.90;0.90;;;11.80;87.20;;;;;;5134263;27;20019;-35
2022/09/27 10:54:28;;;;;;;4.07;0.60;;;11.90;87.30;;;;;;5134462;27;20430;-34
2022/09/27 10:57:18;;;;;;;1.02;0.40;;;11.90;87.20;;;;;;5134175;27;20461;-35
2022/09/27 10:59:53;;;;;;;1.15;0.40;;;12.00;87.10;;;;;;5134734;27;20071;-38
2022/09/27 11:02:34;;;;;;;3.40;0.70;;;12.00;86.40;;;;;;5134698;27;20490;-33
2022/09/27 11:05:10;;;;;;;0.60;0.30;;;11.90;86.30;;;;;;5134397;27;20024;-34
2022/09/27 11:07:36;;;;;;;1.95;0.50;;;12.00;86.50;;;;;;5134634;27;20035;-32
2022/09/27 11:10:27;;;;;;;1.75;0.73;;;12.00;86.50;;;;;;5116229;27;20428;-34
2022/09/27 11:13:15;;;;;;;1.75;0.47;;;12.10;86.20;;;;;;5134135;27;20011;-32
2022/09/27 11:16:05;;;;;;;1.75;0.50;;;12.00;85.70;;;;;;5134334;27;20458;-33
2022/09/27 11:18:39;;;;;;;2.25;0.50;;;12.00;85.40;;;;;;5134400;27;20027;-33
2022/09/27 11:21:49;;;;;;;1.08;0.30;;;12.00;85.40;;;;;;5133865;27;20062;-32
2022/09/27 11:24:42;;;;;;;2.00;0.50;;;12.00;85.70;;;;;;5133957;27;20019;-34
2022/09/27 11:27:53;;;;;;;2.35;0.30;;;12.00;85.20;;;;;;5095250;27;20040;-41
2022/09/27 11:30:21;;;;;;;0.95;0.40;;;12.00;85.50;;;;;;5095555;27;20498;-32
2022/09/27 11:33:13;;;;;;;2.70;0.63;;;11.90;85.20;;;;;;5133903;27;20454;-34
2022/09/27 11:35:47;;;;;;;1.90;0.60;;;12.00;85.70;;;;;;5133558;27;20526;-33
2022/09/27 11:38:31;;;;;;;1.27;0.63;;;12.10;85.60;;;;;;5133864;27;20031;-35
2022/09/27 11:41:15;;;;;;;1.35;0.50;;;12.30;85.70;;;;;;5133322;27;20107;-34
2022/09/27 11:44:07;;;;;;;1.70;0.50;;;12.40;85.40;;;;;;5133566;27;20327;-32
2022/09/27 11:46:37;;;;;;;2.05;0.63;;;12.50;85.30;;;;;;5133391;27;20020;-32
2022/09/27 11:49:27;;;;;;;1.80;0.70;;;12.60;85.20;;;;;;5133486;27;20072;-36
2022/09/27 11:52:14;;;;;;;1.23;0.40;;;12.70;85.20;;;;;;5133768;27;20087;-34
2022/09/27 11:55:00;;;;;;;2.33;0.63;;;12.90;85.10;;;;;;5133187;28;20103;-39
2022/09/27 11:57:37;;;;;;;1.15;0.60;;;12.90;83.90;;;;;;5132834;28;20046;-34
2022/09/27 12:00:23;;;;;;;2.85;0.60;;;12.80;83.80;;;;;;5135542;27;20023;-34
2022/09/27 12:03:13;;;;;;;1.60;0.50;;;12.70;83.90;;;;;;5137384;27;20030;-32
2022/09/27 12:05:57;;;;;;;1.27;0.47;;;12.70;83.80;;;;;;5137495;27;20031;-32
2022/09/27 12:08:58;;;;;;;1.20;0.50;;;12.60;83.80;;;;;;5137590;27;20031;-34
2022/09/27 12:11:32;;;;;;;2.33;0.40;;;12.60;83.60;;;;;;5119640;27;20039;-34
2022/09/27 12:14:06;;;;;;;0.40;0.30;;;12.60;83.50;;;;;;5137682;27;20044;-34
2022/09/27 12:16:33;;;;;;;1.15;0.30;;;12.60;83.40;;;;;;5118886;27;20455;-34
2022/09/27 12:19:00;;;;;;;1.27;0.50;;;12.50;83.20;;;;;;5137300;27;20484;-44
2022/09/27 12:21:30;;;;;;;1.00;0.40;;;12.60;83.50;;;;;;5118913;27;20027;-37
2022/09/27 12:23:57;;;;;;;0.80;0.40;;;12.60;83.50;;;;;;5118774;27;20051;-34
2022/09/27 12:26:36;;;;;;;0.75;0.35;;;12.70;82.70;;;;;;5137582;27;20428;-33
2022/09/27 12:29:20;;;;;;;1.40;0.60;;;12.70;83.10;;;;;;5118762;27;20102;-34
2022/09/27 12:32:08;;;;;;;1.33;0.40;;;12.70;82.80;;;;;;5137387;27;20019;-34
2022/09/27 12:34:50;;;;;;;1.90;0.57;;;12.70;82.80;;;;;;5136584;27;20035;-32
2022/09/27 12:37:38;;;;;;;1.50;0.35;;;12.70;82.50;;;;;;5137061;27;20102;-34
2022/09/27 12:40:15;;;;;;;1.65;0.30;;;12.60;82.40;;;;;;5137308;27;20024;-35
2022/09/27 12:42:55;;;;;;;0.73;0.38;;;12.60;82.30;;;;;;5137142;27;20496;-35
2022/09/27 12:45:29;;;;;;;0.68;0.47;;;12.70;82.20;;;;;;5137066;27;20367;-34
2022/09/27 12:48:10;;;;;;;0.77;0.20;;;12.60;81.70;;;;;;5136994;27;20411;-34
2022/09/27 12:50:51;;;;;;;0.20;0.20;;;12.60;81.90;;;;;;5137270;27;20371;-34
2022/09/27 12:53:50;;;;;;;1.42;0.40;;;12.60;81.60;;;;;;5136595;27;20495;-35
2022/09/27 12:56:34;;;;;;;1.75;0.47;;;12.50;81.50;;;;;;5136618;27;20023;-35
2022/09/27 12:59:43;;;;;;;0.20;0.20;;;12.50;81.50;;;;;;5136946;27;20035;-34
2022/09/27 13:02:28;;;;;;;1.27;0.60;;;12.50;81.70;;;;;;5136177;27;20026;-34
2022/09/27 13:05:21;;;;;;;0.75;0.40;;;12.50;81.80;;;;;;5136208;27;20038;-36
2022/09/27 13:08:13;;;;;;;1.00;0.30;;;12.50;82.00;;;;;;5136389;27;20031;-34
2022/09/27 13:10:38;;;;;;;0.55;0.32;;;12.50;82.00;;;;;;5135906;27;20404;-34
2022/09/27 13:13:07;;;;;;;0.40;0.28;;;12.40;81.70;;;;;;5136091;27;20124;-33
2022/09/27 13:15:36;;;;;;;1.05;0.30;;;12.20;81.80;;;;;;5118315;27;20503;-32
2022/09/27 13:18:49;;;;;;;2.90;0.38;;;12.20;82.10;;;;;;5136164;27;20019;-34
2022/09/27 13:21:50;;;;;;;0.87;0.37;;;12.10;82.30;;;;;;5136473;27;20023;-34
2022/09/27 13:24:42;;;;;;;0.85;0.45;;;12.10;82.30;;;;;;5136186;27;20024;-35
2022/09/27 13:27:35;;;;;;;0.93;0.45;;;12.10;82.50;;;;;;5136101;27;20027;-34